createdAt,value
2023-03-18T00:02:48.987Z,6.50
2023-03-18T00:12:50.588Z,6.15
2023-03-18T00:22:52.089Z,7.20
2023-03-18T00:32:55.313Z,6.83
2023-03-18T00:42:56.910Z,6.33
2023-03-18T00:52:58.409Z,7.13
2023-03-18T01:02:59.909Z,7.10
2023-03-18T01:13:01.453Z,7.40
2023-03-18T01:23:02.981Z,6.90
2023-03-18T01:33:05.875Z,5.90
2023-03-18T01:43:17.750Z,6.03
2023-03-18T01:53:21.060Z,5.00
2023-03-18T02:03:22.669Z,5.90
2023-03-18T02:13:25.155Z,4.97
2023-03-18T02:23:56.045Z,5.60
2023-03-18T02:34:00.172Z,5.40
2023-03-18T02:44:02.301Z,4.88
2023-03-18T02:54:09.760Z,5.27
2023-03-18T03:04:11.639Z,5.33
2023-03-18T03:14:14.486Z,5.50
2023-03-18T03:24:15.958Z,7.90
2023-03-18T03:34:17.493Z,8.30
2023-03-18T03:44:19.243Z,7.53
2023-03-18T03:54:20.701Z,8.30
2023-03-18T04:04:22.189Z,7.87
2023-03-18T04:14:23.678Z,8.47
2023-03-18T04:24:25.212Z,10.13
2023-03-18T04:34:26.716Z,9.23
2023-03-18T04:44:28.225Z,8.00
2023-03-18T04:54:29.896Z,8.50
2023-03-18T05:04:31.685Z,8.20
2023-03-18T05:14:33.209Z,8.02
2023-03-18T05:24:34.743Z,8.33
2023-03-18T05:34:38.460Z,9.13
2023-03-18T05:44:39.968Z,8.83
2023-03-18T05:54:41.483Z,8.17
2023-03-18T06:04:42.976Z,8.50
2023-03-18T06:14:44.450Z,8.40
2023-03-18T06:24:48.398Z,7.90
2023-03-18T06:34:50.139Z,8.03
2023-03-18T06:44:51.663Z,8.03
2023-03-18T06:54:53.173Z,8.20
2023-03-18T07:04:54.628Z,8.07
2023-03-18T07:14:56.085Z,7.03
2023-03-18T07:25:00.954Z,7.50
2023-03-18T07:35:03.682Z,7.10
2023-03-18T07:45:06.809Z,7.40
2023-03-18T07:55:09.189Z,8.03
2023-03-18T08:05:11.198Z,7.80
2023-03-18T08:15:12.864Z,7.00
2023-03-18T08:25:14.366Z,7.13
2023-03-18T08:35:15.845Z,6.70
2023-03-18T08:45:17.389Z,7.43
2023-03-18T08:55:19.022Z,6.40
2023-03-18T09:05:20.850Z,6.63
2023-03-18T09:15:22.399Z,7.87
2023-03-18T09:25:23.964Z,9.15
2023-03-18T09:35:25.704Z,8.60
2023-03-18T09:45:34.216Z,9.13
2023-03-18T09:55:41.924Z,9.40
2023-03-18T10:05:56.631Z,9.83
2023-03-18T10:16:01.407Z,9.98
2023-03-18T10:26:16.481Z,9.23
2023-03-18T10:36:19.576Z,8.73
2023-03-18T10:46:22.079Z,8.57
2023-03-18T10:56:23.782Z,8.67
2023-03-18T11:06:43.757Z,9.82
2023-03-18T11:16:56.040Z,7.93
2023-03-18T11:26:57.499Z,6.97
2023-03-18T11:37:02.314Z,7.10
2023-03-18T11:47:10.387Z,7.40
2023-03-18T11:57:50.694Z,7.07
2023-03-18T12:08:13.657Z,8.87
2023-03-18T12:18:43.092Z,8.97
2023-03-18T12:28:47.476Z,10.10
2023-03-18T12:39:01.244Z,9.80
2023-03-18T12:49:11.553Z,10.38
2023-03-18T12:59:21.594Z,9.73
2023-03-18T13:09:47.462Z,10.03
2023-03-18T13:19:49.203Z,10.27
2023-03-18T13:29:56.673Z,10.53
2023-03-18T13:40:16.844Z,10.85
2023-03-18T13:50:18.299Z,10.47
2023-03-18T14:00:28.973Z,10.10
2023-03-18T14:10:30.766Z,10.10
2023-03-18T14:20:41.422Z,9.77
2023-03-18T14:30:45.290Z,10.07
2023-03-18T14:40:50.225Z,10.90
2023-03-18T14:50:53.484Z,11.00
2023-03-18T15:01:06.176Z,10.60
2023-03-18T15:11:07.938Z,9.80
2023-03-18T15:21:15.160Z,10.43
2023-03-18T15:31:27.617Z,10.60
2023-03-18T15:41:30.785Z,9.60
2023-03-18T15:51:42.541Z,9.77
2023-03-18T16:01:44.075Z,10.30
2023-03-18T16:12:01.372Z,10.02
2023-03-18T16:22:02.920Z,10.80
2023-03-18T16:32:05.176Z,10.17
2023-03-18T16:42:09.492Z,9.73
2023-03-18T16:52:12.243Z,10.60
2023-03-18T17:02:30.067Z,9.55
2023-03-18T17:12:31.638Z,9.37
2023-03-18T17:22:33.381Z,8.87
2023-03-18T17:32:34.942Z,8.87
2023-03-18T17:42:36.693Z,8.33
2023-03-18T17:52:38.385Z,7.95
2023-03-18T18:02:39.923Z,8.27
2023-03-18T18:12:47.838Z,8.60
2023-03-18T18:22:53.162Z,8.50
2023-03-18T18:32:54.674Z,8.67
2023-03-18T18:42:56.155Z,9.13
2023-03-18T18:52:58.443Z,8.73
2023-03-18T19:02:59.951Z,10.33
2023-03-18T19:13:01.533Z,10.27
2023-03-18T19:23:08.590Z,10.20
2023-03-18T19:33:15.365Z,10.23
2023-03-18T19:43:18.290Z,11.20
2023-03-18T19:53:19.863Z,12.17
2023-03-18T20:03:22.078Z,10.70
2023-03-18T20:13:23.752Z,10.90
2023-03-18T20:23:26.296Z,10.73
2023-03-18T20:33:27.899Z,12.90
2023-03-18T20:43:29.998Z,11.67
2023-03-18T20:53:31.569Z,12.37
2023-03-18T21:03:35.483Z,13.27
2023-03-18T21:13:38.248Z,14.60
2023-03-18T21:23:39.827Z,13.57
2023-03-18T21:33:41.386Z,14.87
2023-03-18T21:43:42.905Z,13.87
2023-03-18T21:53:46.605Z,13.77
2023-03-18T22:03:48.162Z,14.55
2023-03-18T22:13:49.801Z,14.60
2023-03-18T22:23:52.167Z,15.50
2023-03-18T22:33:54.342Z,14.67
2023-03-18T22:43:56.601Z,15.77
2023-03-18T22:53:58.301Z,15.77
2023-03-18T23:03:59.846Z,14.93
2023-03-18T23:14:01.404Z,16.37
2023-03-18T23:24:02.999Z,15.67
2023-03-18T23:34:04.510Z,15.70
2023-03-18T23:44:05.990Z,14.70
2023-03-18T23:54:07.916Z,14.73
